Time;durP1;ratioP1;P1;durP2;ratioP2;P2;SDS_P1;SDS_P2;PMS_P1;PMS_P2;Temp;Humidity;BMP_temperature;BMP_pressure;BME280_temperature;BME280_humidity;BME280_pressure;Samples;Min_cycle;Max_cycle;Signal;HPM_P1;HPM_P2
2022/02/03 00:05:10;;;;;;;4.37;1.97;;;;;;;-0.23;100.00;100808.98;5155490;57;1134946;-76
2022/02/03 00:10:29;;;;;;;8.87;4.10;;;;;;;-0.28;100.00;100813.89;5174528;57;21189;-77
2022/02/03 00:25:54;;;;;;;3.77;2.37;;;;;;;-0.43;100.00;100825.56;5156586;57;1139321;-77
2022/02/03 00:31:10;;;;;;;9.70;2.23;;;;;;;-0.46;100.00;100840.78;5150672;57;1139095;-75
2022/02/03 00:52:06;;;;;;;6.27;1.93;;;;;;;-0.48;100.00;100886.77;5155150;57;1138955;-71
2022/02/03 00:57:15;;;;;;;7.37;3.20;;;;;;;-0.44;100.00;100888.81;5154934;57;1139283;-84
2022/02/03 01:02:23;;;;;;;6.00;1.50;;;;;;;-0.41;100.00;100909.08;5146151;57;1139095;-76
2022/02/03 01:07:33;;;;;;;8.20;2.43;;;;;;;-0.36;100.00;100906.38;5144186;57;1139252;-74
2022/02/03 01:12:57;;;;;;;9.63;3.63;;;;;;;-0.29;100.00;100910.49;5143602;57;1138864;-76
2022/02/03 01:18:08;;;;;;;5.67;3.27;;;;;;;-0.25;100.00;100908.67;5143416;57;1139021;-81
2022/02/03 01:44:23;;;;;;;2.03;1.70;;;;;;;-0.17;100.00;100888.09;5146307;57;1136943;-71
2022/02/03 01:54:38;;;;;;;2.63;2.20;;;;;;;-0.02;100.00;100918.01;5124178;57;1137250;-81
2022/02/03 01:59:49;;;;;;;4.03;2.23;;;;;;;0.01;100.00;100916.59;5144969;57;1137013;-82
2022/02/03 02:05:08;;;;;;;2.63;2.03;;;;;;;0.02;100.00;100922.66;5145274;57;1134933;-77
2022/02/03 02:11:05;;;;;;;3.33;2.00;;;;;;;-0.03;100.00;100917.60;5145565;56;1134823;-84
2022/02/03 02:16:12;;;;;;;4.23;1.90;;;;;;;-0.05;100.00;100911.59;5142155;56;1139203;-70
2022/02/03 02:43:18;;;;;;;8.25;3.37;;;;;;;-0.06;100.00;100924.18;5148354;56;1139107;-76
2022/02/03 02:48:38;;;;;;;8.53;3.37;;;;;;;-0.06;100.00;100914.63;5146458;57;1139254;-78
2022/02/03 02:54:10;;;;;;;8.45;3.70;;;;;;;-0.08;100.00;100914.27;5145978;56;1139220;-69
2022/02/03 02:59:31;;;;;;;17.20;5.57;;;;;;;-0.12;100.00;100916.09;5149787;56;1136970;-73
2022/02/03 03:28:53;;;;;;;9.53;3.67;;;;;;;-0.16;100.00;100909.30;5149753;56;1139037;-82
2022/02/03 03:36:38;;;;;;;6.62;3.12;;;;;;;-0.17;100.00;100920.59;5133890;57;1139006;-71
2022/02/03 03:41:46;;;;;;;11.10;2.93;;;;;;;-0.16;100.00;100921.44;5155114;57;1139264;-80
2022/02/03 03:46:53;;;;;;;8.20;3.60;;;;;;;-0.16;100.00;100917.54;5155053;57;1141003;-78
2022/02/03 03:52:07;;;;;;;5.97;2.33;;;;;;;-0.15;100.00;100914.87;5155244;57;1139063;-74
2022/02/03 03:57:34;;;;;;;9.88;2.83;;;;;;;-0.15;100.00;100913.57;5142395;57;1139100;-79
2022/02/03 04:53:37;;;;;;;17.67;4.57;;;;;;;-0.10;100.00;100942.05;5132936;57;1141143;-77
2022/02/03 05:04:14;;;;;;;45.80;10.40;;;;;;;-0.10;100.00;100952.45;5143498;57;1141066;-74
2022/02/03 05:15:32;;;;;;;13.07;4.80;;;;;;;-0.09;100.00;100947.20;5119223;57;1139370;-80
2022/02/03 05:20:49;;;;;;;12.75;3.77;;;;;;;-0.08;100.00;100943.72;5058232;58;1138968;-77
2022/02/03 05:26:13;;;;;;;42.07;10.90;;;;;;;-0.07;100.00;100938.08;5015966;58;1139005;-68
2022/02/03 05:32:16;;;;;;;14.20;4.57;;;;;;;-0.06;100.00;100943.68;5048570;58;1139350;-71
2022/02/03 05:49:03;;;;;;;14.77;4.37;;;;;;;-0.05;100.00;100941.48;4946545;58;1141898;-69
2022/02/03 06:31:25;;;;;;;19.12;4.45;;;;;;;0.16;100.00;100960.83;4977036;59;1139585;-70
2022/02/03 06:36:32;;;;;;;21.60;4.93;;;;;;;0.18;100.00;100960.34;4827341;59;1139017;-68
2022/02/03 06:41:38;;;;;;;33.83;7.10;;;;;;;0.22;100.00;100957.62;4903598;60;1139566;-70
2022/02/03 06:46:48;;;;;;;33.23;8.70;;;;;;;0.19;100.00;100963.34;4836511;60;1138997;-74
2022/02/03 06:52:02;;;;;;;24.47;4.70;;;;;;;0.26;100.00;100964.45;4843898;60;1139277;-74
2022/02/03 06:57:02;;;;;;;11.80;4.93;;;;;;;0.29;100.00;100957.02;4909904;60;1139406;-70
2022/02/03 07:02:06;;;;;;;17.13;4.17;;;;;;;0.31;100.00;100939.14;4919773;59;1139183;-77
2022/02/03 07:07:17;;;;;;;8.37;3.23;;;;;;;0.33;100.00;100938.65;4941077;59;1139046;-77
2022/02/03 07:12:22;;;;;;;12.47;4.40;;;;;;;0.38;100.00;100924.66;4935796;58;1137182;-84
2022/02/03 07:17:29;;;;;;;19.97;4.90;;;;;;;0.40;100.00;100918.52;4954297;58;1139238;-82
2022/02/03 07:22:35;;;;;;;22.77;6.43;;;;;;;0.38;100.00;100912.95;4934245;58;1138876;-77
2022/02/03 07:27:45;;;;;;;22.83;5.70;;;;;;;0.39;100.00;100909.02;4910536;59;1139416;-79
2022/02/03 07:32:55;;;;;;;17.07;5.33;;;;;;;0.39;100.00;100905.11;4908997;59;1139082;-72
2022/02/03 07:38:00;;;;;;;17.10;4.33;;;;;;;0.42;100.00;100885.52;4921271;59;1139336;-72
2022/02/03 07:43:09;;;;;;;15.87;4.27;;;;;;;0.46;100.00;100892.30;5003422;58;1139023;-72
2022/02/03 07:48:12;;;;;;;19.73;4.97;;;;;;;0.50;100.00;100890.02;5003455;58;1139031;-69
2022/02/03 07:53:19;;;;;;;15.93;3.65;;;;;;;0.55;100.00;100891.19;5003053;58;1139017;-82
2022/02/03 07:58:26;;;;;;;13.90;4.43;;;;;;;0.57;100.00;100882.44;5003398;58;1139041;-79
2022/02/03 08:03:32;;;;;;;23.33;6.17;;;;;;;0.59;100.00;100891.06;5003310;58;1139380;-76
2022/02/03 08:08:43;;;;;;;14.30;4.20;;;;;;;0.59;100.00;100882.40;5003125;58;1139194;-72
2022/02/03 08:13:54;;;;;;;27.07;7.72;;;;;;;0.61;100.00;100884.51;4999639;58;1139392;-68
2022/02/03 08:24:24;;;;;;;70.40;17.37;;;;;;;0.65;100.00;100878.28;4985424;58;1139014;-74
2022/02/03 08:34:48;;;;;;;26.33;8.63;;;;;;;0.70;100.00;100875.95;4992368;58;1141138;-71
2022/02/03 08:39:53;;;;;;;30.13;6.57;;;;;;;0.71;100.00;100879.41;4992529;58;1139509;-72
2022/02/03 08:44:58;;;;;;;20.13;6.07;;;;;;;0.71;100.00;100869.00;4993270;58;1138954;-75
2022/02/03 08:50:08;;;;;;;13.03;5.10;;;;;;;0.72;100.00;100865.49;4992930;58;1139099;-71
2022/02/03 08:55:28;;;;;;;22.90;8.60;;;;;;;0.75;100.00;100860.20;4992919;58;1136997;-73
2022/02/03 09:38:13;;;;;;;28.37;11.13;;;;;;;0.99;100.00;100848.13;4998173;58;1138865;-71
2022/02/03 09:59:13;;;;;;;22.93;7.90;;;;;;;1.27;100.00;100841.08;4923250;58;1141361;-75
2022/02/03 10:04:24;;;;;;;29.67;9.17;;;;;;;1.34;100.00;100836.07;4862991;60;1139155;-75
2022/02/03 10:09:41;;;;;;;25.97;8.03;;;;;;;1.41;100.00;100834.09;4895655;59;1138999;-72
2022/02/03 10:14:50;;;;;;;21.67;6.53;;;;;;;1.48;100.00;100827.77;4895374;60;1139084;-73
2022/02/03 10:20:11;;;;;;;17.37;6.23;;;;;;;1.63;100.00;100828.53;4884320;60;1139189;-77
2022/02/03 10:25:31;;;;;;;15.30;5.00;;;;;;;1.77;100.00;100816.29;4856922;60;1139267;-79
2022/02/03 10:30:46;;;;;;;29.93;6.60;;;;;;;1.94;100.00;100807.39;4820570;60;1136993;-80
2022/02/03 10:35:53;;;;;;;32.33;9.37;;;;;;;2.04;100.00;100800.06;4837977;60;1136854;-79
2022/02/03 10:52:32;;;;;;;79.82;21.05;;;;;;;2.34;100.00;100775.84;4702700;60;1139048;-71
2022/02/03 11:12:52;;;;;;;18.53;5.53;;;;;;;2.90;100.00;100748.73;4837899;60;1139010;-79
2022/02/03 11:18:02;;;;;;;33.53;7.40;;;;;;;3.07;100.00;100739.69;4890210;59;1139340;-78
2022/02/03 12:22:35;;;;;;;17.17;5.33;;;;;;;5.32;100.00;100683.44;4955750;58;1136908;-71
2022/02/03 12:27:48;;;;;;;49.73;10.73;;;;;;;5.42;100.00;100688.56;4916985;59;1137197;-74
2022/02/03 12:38:23;;;;;;;17.55;5.33;;;;;;;5.61;100.00;100674.84;4919781;60;1139082;-72
2022/02/03 12:43:35;;;;;;;25.37;6.13;;;;;;;5.79;100.00;100662.95;4927162;59;1141154;-76
2022/02/03 12:48:39;;;;;;;26.47;10.00;;;;;;;5.97;100.00;100663.25;4964366;57;1139364;-72
2022/02/03 12:53:46;;;;;;;64.43;19.33;;;;;;;6.29;100.00;100657.48;4923882;57;1143209;-81
2022/02/03 12:59:00;;;;;;;48.07;17.37;;;;;;;6.44;100.00;100658.38;4914384;59;1141097;-76
2022/02/03 13:04:19;;;;;;;35.80;14.80;;;;;;;6.58;100.00;100662.35;4839811;60;1143226;-75
2022/02/03 13:09:14;;;;;;;37.50;10.33;;;;;;;6.59;100.00;100661.42;4871744;59;1143490;-71
2022/02/03 13:14:35;;;;;;;28.87;8.67;;;;;;;6.34;100.00;100664.64;4956555;58;1141106;-74
2022/02/03 13:30:15;;;;;;;47.20;17.97;;;;;;;5.91;100.00;100651.80;4904960;59;1143472;-71
2022/02/03 13:35:29;;;;;;;42.27;13.73;;;;;;;5.91;100.00;100641.30;4900098;58;1143392;-71
2022/02/03 13:40:32;;;;;;;33.43;11.10;;;;;;;5.90;100.00;100636.98;4982523;58;1141250;-72
2022/02/03 13:45:44;;;;;;;36.30;12.80;;;;;;;5.94;100.00;100631.48;4963868;57;1143284;-69
2022/02/03 13:50:56;;;;;;;49.73;16.53;;;;;;;6.33;100.00;100636.68;4928522;59;1143211;-72
2022/02/03 14:29:15;;;;;;;143.53;43.10;;;;;;;6.46;100.00;100612.69;4996211;58;1143240;-72
2022/02/03 14:34:26;;;;;;;28.37;8.90;;;;;;;6.34;100.00;100605.53;5047084;58;1145395;-70
2022/02/03 14:39:42;;;;;;;25.60;5.67;;;;;;;6.22;100.00;100604.95;5039953;58;1139233;-74
2022/02/03 14:44:34;;;;;;;22.37;6.07;;;;;;;6.16;100.00;100594.79;5039527;58;1141090;-75
2022/02/03 14:49:44;;;;;;;35.87;11.97;;;;;;;6.12;100.00;100584.92;5000288;58;1141383;-71
2022/02/03 15:00:14;;;;;;;53.73;21.97;;;;;;;6.05;100.00;100582.75;4919948;59;1143224;-72
2022/02/03 15:05:32;;;;;;;35.43;12.60;;;;;;;5.97;100.00;100570.05;4967768;58;1141175;-69
2022/02/03 15:15:44;;;;;;;66.90;21.47;;;;;;;5.73;100.00;100557.01;4940284;58;1141087;-72
2022/02/03 15:20:50;;;;;;;68.67;25.40;;;;;;;5.65;100.00;100554.34;4873022;59;1141237;-69
2022/02/03 15:25:55;;;;;;;74.27;31.82;;;;;;;5.61;100.00;100552.00;4896243;60;1143673;-71
2022/02/03 15:31:04;;;;;;;67.63;22.37;;;;;;;5.59;100.00;100546.83;4919619;59;1143412;-74
2022/02/03 15:36:14;;;;;;;40.10;13.37;;;;;;;5.57;100.00;100546.53;4995389;58;1141183;-73
2022/02/03 15:41:27;;;;;;;55.93;18.10;;;;;;;5.53;100.00;100545.86;5015570;58;1141277;-70
2022/02/03 15:46:33;;;;;;;96.60;39.40;;;;;;;5.52;100.00;100535.45;5036263;58;1142865;-71
2022/02/03 15:57:04;;;;;;;84.70;24.30;;;;;;;5.44;100.00;100530.65;5028431;57;1138956;-70
2022/02/03 16:02:39;;;;;;;109.43;26.80;;;;;;;5.37;100.00;100524.50;4964311;58;1139135;-74
2022/02/03 16:18:16;;;;;;;102.43;32.20;;;;;;;5.32;100.00;100510.36;5050497;57;1143828;-72
2022/02/03 16:55:33;;;;;;;86.53;30.37;;;;;;;5.24;100.00;100486.33;5066553;58;1141347;-73
2022/02/03 17:00:35;;;;;;;76.37;30.50;;;;;;;5.22;100.00;100478.55;5119724;57;1143173;-75
2022/02/03 17:05:41;;;;;;;81.77;32.90;;;;;;;5.21;100.00;100481.25;5063266;57;1143175;-72
2022/02/03 17:10:47;;;;;;;73.83;33.50;;;;;;;5.21;100.00;100476.00;5051851;58;1143212;-73
2022/02/03 17:15:52;;;;;;;94.70;40.20;;;;;;;5.18;100.00;100467.03;5052385;58;1141090;-71
2022/02/03 17:20:59;;;;;;;101.73;34.30;;;;;;;5.10;100.00;100454.80;5062945;56;1141096;-72
2022/02/03 17:26:34;;;;;;;80.80;29.37;;;;;;;5.15;100.00;100457.55;4930090;59;1145295;-76
2022/02/03 18:19:45;;;;;;;93.10;25.47;;;;;;;4.77;100.00;100426.06;5094179;57;1145495;-71
2022/02/03 18:30:05;;;;;;;66.67;30.63;;;;;;;4.75;100.00;100412.20;5036443;58;1142942;-74
2022/02/03 18:51:02;;;;;;;65.73;24.10;;;;;;;4.76;100.00;100391.62;5020632;57;1143179;-70
2022/02/03 18:56:23;;;;;;;62.35;22.65;;;;;;;4.75;100.00;100392.55;5041083;57;1143443;-74
2022/02/03 19:23:20;;;;;;;28.07;13.50;;;;;;;4.68;100.00;100375.03;5066903;58;1141224;-75
2022/02/03 20:05:31;;;;;;;35.03;13.77;;;;;;;4.66;100.00;100351.16;5032696;57;1143204;-67
2022/02/03 20:10:38;;;;;;;30.23;12.63;;;;;;;4.65;100.00;100350.31;5018479;58;1143171;-71
2022/02/03 20:15:41;;;;;;;28.90;12.37;;;;;;;4.65;100.00;100340.30;5034194;57;1143382;-69
2022/02/03 20:20:48;;;;;;;58.50;19.12;;;;;;;4.66;100.00;100338.06;4988774;58;1143679;-69
2022/02/03 20:25:59;;;;;;;90.27;42.00;;;;;;;4.64;100.00;100330.75;4878619;58;1143215;-67
2022/02/03 20:31:06;;;;;;;75.90;39.23;;;;;;;4.64;100.00;100324.20;4878064;58;1143217;-70
2022/02/03 20:36:12;;;;;;;37.20;19.87;;;;;;;4.65;100.00;100317.57;5023338;57;1143504;-69
2022/02/03 20:41:19;;;;;;;57.27;24.70;;;;;;;4.65;100.00;100316.27;5063273;57;1143214;-70
2022/02/03 20:46:25;;;;;;;36.70;16.83;;;;;;;4.66;100.00;100315.34;5067919;57;1143306;-71
2022/02/03 20:51:33;;;;;;;33.27;15.83;;;;;;;4.66;100.00;100315.34;5031961;57;1143668;-68
2022/02/03 20:56:39;;;;;;;30.80;14.70;;;;;;;4.67;100.00;100313.09;5037276;57;1143164;-68
2022/02/03 21:01:50;;;;;;;35.40;15.50;;;;;;;4.66;100.00;100300.08;5070592;57;1143351;-68
2022/02/03 21:06:52;;;;;;;44.93;19.90;;;;;;;4.65;100.00;100301.02;5067745;57;1143498;-70
2022/02/03 21:11:57;;;;;;;32.17;14.63;;;;;;;4.65;100.00;100294.00;5071466;57;1143150;-69
2022/02/03 21:17:04;;;;;;;22.77;10.83;;;;;;;4.66;100.00;100304.02;5067538;58;1143308;-71
2022/02/03 21:22:11;;;;;;;36.50;15.70;;;;;;;4.66;100.00;100294.84;5040907;58;1143143;-71
2022/02/03 21:27:18;;;;;;;26.63;14.60;;;;;;;4.69;100.00;100305.16;5042753;57;1143369;-70
2022/02/03 21:32:24;;;;;;;22.10;11.87;;;;;;;4.70;100.00;100297.21;5041307;57;1143323;-68
2022/02/03 21:37:31;;;;;;;34.50;17.03;;;;;;;4.70;100.00;100294.59;4910915;58;1143237;-70
2022/02/03 21:42:37;;;;;;;43.10;16.60;;;;;;;4.72;100.00;100291.42;4971418;59;1143159;-69
2022/02/03 21:47:44;;;;;;;31.33;15.07;;;;;;;4.74;100.00;100293.92;4962742;59;1143276;-70
2022/02/03 21:52:50;;;;;;;32.77;16.07;;;;;;;4.75;100.00;100299.08;4972250;59;1142776;-70
2022/02/03 21:57:58;;;;;;;39.33;16.50;;;;;;;4.78;100.00;100296.30;4972384;59;1141172;-72
2022/02/03 22:03:04;;;;;;;36.17;17.60;;;;;;;4.78;100.00;100298.91;4973251;59;1141197;-70
2022/02/03 22:08:12;;;;;;;45.70;19.17;;;;;;;4.79;100.00;100300.60;4973405;59;1141335;-72
2022/02/03 22:13:19;;;;;;;56.20;21.37;;;;;;;4.79;100.00;100300.60;4928418;59;1141117;-68
2022/02/03 22:18:24;;;;;;;37.80;17.32;;;;;;;4.79;100.00;100288.81;5065602;58;1141393;-72
2022/02/03 22:29:25;;;;;;;39.80;18.85;;;;;;;4.79;100.00;100287.97;5067198;57;1141434;-70
2022/02/03 22:49:47;;;;;;;39.10;20.00;;;;;;;4.86;100.00;100261.34;5059180;57;1143078;-68
2022/02/03 22:54:53;;;;;;;31.57;13.33;;;;;;;4.88;100.00;100252.08;5151916;57;1143128;-70
2022/02/03 23:05:06;;;;;;;34.60;17.90;;;;;;;4.93;100.00;100246.93;5071567;57;1143166;-71
2022/02/03 23:10:21;;;;;;;47.60;24.20;;;;;;;4.95;100.00;100242.91;5070981;57;1143196;-67
2022/02/03 23:15:44;;;;;;;40.33;19.90;;;;;;;4.97;100.00;100242.36;5070492;57;1143192;-68
2022/02/03 23:20:45;;;;;;;26.48;15.72;;;;;;;4.99;100.00;100238.34;5067763;58;1143379;-72
2022/02/03 23:25:47;;;;;;;34.87;18.63;;;;;;;5.03;100.00;100239.39;5064797;57;1143280;-68
2022/02/03 23:30:52;;;;;;;28.70;15.87;;;;;;;5.02;100.00;100232.92;5014540;57;1143313;-69
2022/02/03 23:35:58;;;;;;;37.63;19.33;;;;;;;5.02;100.00;100236.39;5145667;57;1143666;-71
2022/02/03 23:46:55;;;;;;;41.13;16.67;;;;;;;5.02;100.00;100235.55;5145721;57;1143224;-69
